Time;durP1;ratioP1;P1;durP2;ratioP2;P2;SDS_P1;SDS_P2;PMS_P1;PMS_P2;Temp;Humidity;BMP_temperature;BMP_pressure;BME280_temperature;BME280_humidity;BME280_pressure;Samples;Min_cycle;Max_cycle;Signal;HPM_P1;HPM_P2
2021/03/28 00:09:50;;;;;;;35.03;20.70;;;;;;;;;;5011440;28;20212;-96
2021/03/28 00:18:07;;;;;;;31.88;19.23;;;;;;;;;;5009457;28;20190;-96
2021/03/28 00:21:06;;;;;;;30.85;20.77;;;;;;;;;;5016584;28;20256;-96
2021/03/28 00:23:56;;;;;;;28.98;19.42;;;;;;;;;;5011514;28;20218;-96
2021/03/28 00:29:23;;;;;;;28.13;16.45;;;;;;;;;;5009155;28;20238;-96
2021/03/28 02:10:20;;;;;;;21.88;14.90;;;;;;;;;;3439464;23;20549;-96
2021/03/28 02:12:50;;;;;;;28.88;16.80;;;;;;;;;;5037899;28;20196;-96
2021/03/28 02:15:27;;;;;;;25.10;15.88;;;;;;;;;;5049684;28;20191;-96
2021/03/28 02:17:57;;;;;;;24.73;15.68;;;;;;;;;;5028041;28;20208;-96
2021/03/28 02:20:41;;;;;;;26.10;17.15;;;;;;;;;;5054427;28;20185;-96
2021/03/28 02:23:11;;;;;;;23.88;15.50;;;;;;;;;;5436259;23;20216;-96
2021/03/28 02:33:45;;;;;;;28.00;18.63;;;;;;;;;;5067845;28;20234;-96
2021/03/28 02:55:04;;;;;;;17.17;12.20;;;;;;;;;;5008520;28;20192;-96
2021/03/28 02:57:42;;;;;;;21.52;15.50;;;;;;;;;;5041775;28;20220;-96
2021/03/28 03:00:15;;;;;;;28.13;17.10;;;;;;;;;;5100771;23;20228;-96
2021/03/28 03:02:58;;;;;;;29.33;18.38;;;;;;;;;;5039874;28;20208;-96
2021/03/28 03:05:37;;;;;;;28.08;18.35;;;;;;;;;;5023993;28;20200;-96
2021/03/28 03:08:17;;;;;;;32.80;20.70;;;;;;;;;;5036022;28;20238;-96
2021/03/28 03:10:51;;;;;;;29.77;16.75;;;;;;;;;;5045654;28;20231;-96
2021/03/28 03:13:32;;;;;;;27.88;15.40;;;;;;;;;;5040710;28;20279;-96
2021/03/28 03:16:04;;;;;;;23.20;15.00;;;;;;;;;;5038289;28;20200;-96
2021/03/28 03:18:45;;;;;;;18.70;14.13;;;;;;;;;;5038859;28;20200;-96
2021/03/28 03:27:35;;;;;;;20.75;13.10;;;;;;;;;;5058080;28;20184;-95
2021/03/28 03:30:19;;;;;;;22.98;15.00;;;;;;;;;;5051143;28;20181;-96
2021/03/28 03:49:18;;;;;;;25.40;13.52;;;;;;;;;;6008663;22;20178;-96
2021/03/28 03:51:49;;;;;;;16.58;11.68;;;;;;;;;;5024411;28;20248;-96
2021/03/28 03:54:24;;;;;;;18.90;12.43;;;;;;;;;;5055379;28;20193;-95
2021/03/28 04:05:08;;;;;;;28.13;17.65;;;;;;;;;;5343165;23;20236;-96
2021/03/28 04:07:42;;;;;;;30.38;18.20;;;;;;;;;;5068096;28;20191;-96
2021/03/28 04:10:15;;;;;;;28.73;17.58;;;;;;;;;;5071664;28;20202;-96
2021/03/28 04:12:47;;;;;;;31.42;18.10;;;;;;;;;;5075003;28;20196;-96
2021/03/28 04:15:28;;;;;;;26.08;16.65;;;;;;;;;;5083645;28;20225;-96
2021/03/28 04:18:02;;;;;;;21.65;15.85;;;;;;;;;;5082913;28;20238;-96
2021/03/28 04:20:34;;;;;;;26.55;16.60;;;;;;;;;;5146176;23;20206;-96
2021/03/28 04:23:19;;;;;;;26.27;16.83;;;;;;;;;;5080261;28;20274;-96
2021/03/28 04:25:51;;;;;;;26.17;17.20;;;;;;;;;;5081682;28;20199;-96
2021/03/28 04:28:24;;;;;;;25.45;17.80;;;;;;;;;;5100670;28;20210;-96
2021/03/28 04:30:58;;;;;;;23.88;17.00;;;;;;;;;;5098979;28;20209;-96
2021/03/28 04:33:32;;;;;;;25.67;15.95;;;;;;;;;;5081084;28;20210;-96
2021/03/28 04:36:11;;;;;;;23.48;13.75;;;;;;;;;;5099238;28;20203;-95
2021/03/28 04:49:19;;;;;;;28.15;18.02;;;;;;;;;;5211032;22;20230;-96
2021/03/28 04:52:06;;;;;;;29.73;16.80;;;;;;;;;;5080096;28;20194;-96
2021/03/28 04:54:40;;;;;;;22.08;13.65;;;;;;;;;;5076626;28;20229;-96
2021/03/28 04:57:23;;;;;;;21.83;13.52;;;;;;;;;;5078080;28;20238;-96
2021/03/28 05:00:10;;;;;;;21.48;13.57;;;;;;;;;;5076799;28;20208;-96
2021/03/28 05:02:49;;;;;;;21.60;14.52;;;;;;;;;;5077061;28;20197;-96
2021/03/28 05:05:48;;;;;;;21.95;14.07;;;;;;;;;;5078105;28;20184;-96
2021/03/28 05:08:33;;;;;;;25.50;16.50;;;;;;;;;;5019212;28;20197;-95
2021/03/28 05:19:05;;;;;;;33.10;21.65;;;;;;;;;;5179334;23;20230;-96
2021/03/28 05:21:51;;;;;;;40.85;21.83;;;;;;;;;;5079049;28;20195;-96
2021/03/28 05:24:39;;;;;;;42.88;23.83;;;;;;;;;;5078150;28;20191;-94
2021/03/28 05:27:23;;;;;;;40.03;23.20;;;;;;;;;;5081444;28;20187;-96
2021/03/28 05:30:06;;;;;;;27.50;16.02;;;;;;;;;;5086863;28;20193;-96
2021/03/28 05:32:49;;;;;;;23.48;14.85;;;;;;;;;;5046846;28;20192;-96
2021/03/28 05:35:49;;;;;;;25.63;15.50;;;;;;;;;;5080990;28;20191;-96
2021/03/28 05:38:32;;;;;;;20.35;14.68;;;;;;;;;;5075720;28;20224;-96
2021/03/28 05:41:25;;;;;;;23.30;15.65;;;;;;;;;;5092043;28;20223;-96
2021/03/28 05:44:05;;;;;;;21.55;15.35;;;;;;;;;;5090961;28;20208;-96
2021/03/28 05:46:41;;;;;;;33.83;18.30;;;;;;;;;;5065280;28;20220;-96
2021/03/28 05:49:16;;;;;;;32.28;19.23;;;;;;;;;;5072147;28;20213;-96
2021/03/28 05:52:09;;;;;;;36.42;21.75;;;;;;;;;;5079929;28;20212;-96
2021/03/28 05:54:56;;;;;;;33.33;21.88;;;;;;;;;;5084217;28;20197;-96
2021/03/28 05:57:37;;;;;;;38.45;26.80;;;;;;;;;;5085021;28;20227;-96
2021/03/28 06:00:20;;;;;;;41.45;28.92;;;;;;;;;;5076670;28;20205;-95
2021/03/28 06:03:01;;;;;;;46.65;26.88;;;;;;;;;;5083250;28;20202;-96
2021/03/28 06:05:46;;;;;;;36.65;23.50;;;;;;;;;;5076109;28;20224;-95
2021/03/28 06:08:31;;;;;;;37.13;23.27;;;;;;;;;;5063971;28;20222;-96
2021/03/28 06:11:22;;;;;;;33.97;22.88;;;;;;;;;;5069092;28;20207;-96
2021/03/28 06:14:12;;;;;;;35.38;21.90;;;;;;;;;;5084575;28;20196;-95
2021/03/28 06:16:57;;;;;;;29.55;19.35;;;;;;;;;;5077467;28;20230;-94
2021/03/28 06:19:45;;;;;;;33.78;20.52;;;;;;;;;;5056618;28;20230;-95
2021/03/28 06:22:38;;;;;;;35.30;23.30;;;;;;;;;;5035656;28;20192;-96
2021/03/28 06:28:21;;;;;;;35.78;24.90;;;;;;;;;;5100571;23;20243;-96
2021/03/28 06:31:14;;;;;;;43.37;27.53;;;;;;;;;;5077102;28;20203;-96
2021/03/28 06:34:12;;;;;;;34.63;24.13;;;;;;;;;;5050153;28;20506;-96
2021/03/28 06:36:56;;;;;;;36.70;23.87;;;;;;;;;;5079140;28;20476;-96
2021/03/28 06:39:40;;;;;;;30.37;22.23;;;;;;;;;;5091427;23;20496;-95
2021/03/28 06:42:15;;;;;;;34.20;22.63;;;;;;;;;;5055612;28;20461;-95
2021/03/28 06:45:06;;;;;;;37.67;24.47;;;;;;;;;;5058611;28;20449;-95
2021/03/28 06:47:49;;;;;;;30.53;23.20;;;;;;;;;;5058158;28;20429;-96
2021/03/28 06:50:35;;;;;;;30.43;22.00;;;;;;;;;;5072010;28;20451;-96
2021/03/28 06:53:22;;;;;;;31.23;20.40;;;;;;;;;;5054223;28;20542;-95
2021/03/28 06:56:01;;;;;;;28.83;19.67;;;;;;;;;;5051317;28;20480;-95
2021/03/28 06:58:38;;;;;;;27.70;19.73;;;;;;;;;;5044089;28;20457;-96
2021/03/28 07:01:31;;;;;;;27.90;19.80;;;;;;;;;;5052732;28;20479;-95
2021/03/28 07:04:04;;;;;;;26.10;19.30;;;;;;;;;;5060154;28;20457;-93
2021/03/28 07:06:37;;;;;;;29.20;20.73;;;;;;;;;;5059054;28;20439;-95
2021/03/28 07:09:24;;;;;;;27.70;19.77;;;;;;;;;;5076706;28;20540;-96
2021/03/28 07:12:02;;;;;;;29.83;20.40;;;;;;;;;;5058576;28;20497;-96
2021/03/28 07:14:47;;;;;;;27.00;18.50;;;;;;;;;;5059532;28;20961;-95
2021/03/28 07:17:37;;;;;;;26.47;18.87;;;;;;;;;;5059341;28;20485;-94
2021/03/28 07:20:28;;;;;;;28.00;18.90;;;;;;;;;;5045990;28;20802;-95
2021/03/28 07:23:16;;;;;;;25.47;19.10;;;;;;;;;;5055606;28;20446;-95
2021/03/28 07:25:49;;;;;;;21.80;17.77;;;;;;;;;;5056762;28;20455;-94
2021/03/28 07:28:34;;;;;;;27.40;18.77;;;;;;;;;;5059641;28;20457;-94
2021/03/28 07:31:19;;;;;;;28.67;18.63;;;;;;;;;;5053063;28;20457;-95
2021/03/28 07:33:56;;;;;;;24.53;18.90;;;;;;;;;;5056667;28;20447;-96
2021/03/28 07:36:40;;;;;;;26.93;18.80;;;;;;;;;;5055880;28;20446;-96
2021/03/28 07:39:24;;;;;;;28.07;18.80;;;;;;;;;;5068298;28;20473;-95
2021/03/28 07:42:06;;;;;;;27.70;21.50;;;;;;;;;;5065106;28;20430;-95
2021/03/28 07:44:49;;;;;;;23.80;18.13;;;;;;;;;;5046232;28;21021;-95
2021/03/28 07:47:39;;;;;;;31.47;20.90;;;;;;;;;;5034591;28;20450;-96
2021/03/28 07:50:28;;;;;;;24.67;18.87;;;;;;;;;;5054423;28;20504;-96
2021/03/28 07:53:09;;;;;;;25.53;19.17;;;;;;;;;;5062657;28;20454;-96
2021/03/28 07:55:38;;;;;;;27.27;20.00;;;;;;;;;;5062389;28;20446;-94
2021/03/28 07:58:22;;;;;;;27.60;20.10;;;;;;;;;;5073800;28;20502;-94
2021/03/28 08:01:03;;;;;;;25.30;19.90;;;;;;;;;;5064375;28;20446;-95
2021/03/28 08:03:44;;;;;;;25.37;19.90;;;;;;;;;;5049466;28;20459;-94
2021/03/28 08:06:34;;;;;;;22.03;18.37;;;;;;;;;;5046622;28;20464;-94
2021/03/28 08:09:07;;;;;;;22.07;18.10;;;;;;;;;;5033534;28;20453;-94
2021/03/28 08:11:47;;;;;;;19.80;17.57;;;;;;;;;;5046468;28;20476;-93
2021/03/28 08:14:37;;;;;;;23.63;16.77;;;;;;;;;;5052190;28;20455;-93
2021/03/28 08:17:08;;;;;;;20.80;18.03;;;;;;;;;;5029655;28;20612;-94
2021/03/28 08:19:52;;;;;;;22.87;18.10;;;;;;;;;;5062839;28;20444;-95
2021/03/28 08:22:21;;;;;;;27.77;17.40;;;;;;;;;;5050477;28;20890;-94
2021/03/28 08:25:01;;;;;;;24.60;18.60;;;;;;;;;;5059997;28;20479;-94
2021/03/28 08:27:45;;;;;;;20.93;17.00;;;;;;;;;;5048106;28;20450;-93
2021/03/28 08:30:22;;;;;;;22.33;17.13;;;;;;;;;;5049375;28;20445;-93
2021/03/28 08:33:05;;;;;;;27.90;17.30;;;;;;;;;;5042468;28;20446;-94
2021/03/28 08:35:37;;;;;;;25.67;18.07;;;;;;;;;;5052796;28;20452;-92
2021/03/28 08:38:14;;;;;;;23.57;19.77;;;;;;;;;;5052755;28;20554;-94
2021/03/28 08:40:55;;;;;;;25.63;19.37;;;;;;;;;;5053435;28;20476;-95
2021/03/28 08:43:42;;;;;;;23.60;20.50;;;;;;;;;;5053789;28;20473;-93
2021/03/28 08:46:16;;;;;;;21.40;19.20;;;;;;;;;;5055151;28;21017;-95
2021/03/28 08:48:47;;;;;;;24.60;17.03;;;;;;;;;;5043587;28;20458;-96
2021/03/28 08:51:25;;;;;;;23.27;15.50;;;;;;;;;;5051071;28;20449;-95
2021/03/28 08:53:55;;;;;;;18.67;14.80;;;;;;;;;;5057448;28;20464;-94
2021/03/28 08:56:44;;;;;;;20.53;15.50;;;;;;;;;;5040161;28;20455;-94
2021/03/28 08:59:19;;;;;;;21.53;16.57;;;;;;;;;;5033356;28;20469;-95
2021/03/28 09:01:47;;;;;;;21.97;15.53;;;;;;;;;;5061425;28;20451;-94
2021/03/28 09:04:15;;;;;;;20.17;17.13;;;;;;;;;;5057344;28;20462;-93
2021/03/28 09:06:48;;;;;;;17.93;14.47;;;;;;;;;;5059569;28;20484;-94
2021/03/28 09:09:17;;;;;;;19.67;16.03;;;;;;;;;;5064622;28;20470;-95
2021/03/28 09:11:59;;;;;;;19.03;14.67;;;;;;;;;;5071737;28;20464;-94
2021/03/28 09:14:36;;;;;;;21.17;15.60;;;;;;;;;;5050141;28;20454;-93
2021/03/28 09:17:12;;;;;;;18.40;14.97;;;;;;;;;;5041259;28;20491;-95
2021/03/28 09:19:53;;;;;;;20.03;15.47;;;;;;;;;;5050715;28;20457;-95
2021/03/28 09:22:23;;;;;;;22.00;15.60;;;;;;;;;;5043982;28;20445;-93
2021/03/28 09:24:54;;;;;;;17.00;15.20;;;;;;;;;;5054094;28;20446;-94
2021/03/28 09:27:43;;;;;;;15.47;13.20;;;;;;;;;;5048049;28;20482;-93
2021/03/28 09:30:17;;;;;;;18.63;13.97;;;;;;;;;;5045764;28;20451;-95
2021/03/28 09:32:48;;;;;;;14.60;12.87;;;;;;;;;;5050268;28;20974;-94
2021/03/28 09:35:33;;;;;;;15.50;13.03;;;;;;;;;;5052640;28;20461;-96
2021/03/28 09:38:05;;;;;;;13.73;11.40;;;;;;;;;;5063520;28;20485;-92
2021/03/28 09:40:39;;;;;;;16.80;13.70;;;;;;;;;;5055482;28;20450;-93
2021/03/28 09:43:10;;;;;;;14.70;13.07;;;;;;;;;;5053726;28;20441;-94
2021/03/28 09:45:42;;;;;;;17.17;13.70;;;;;;;;;;5042994;28;20522;-93
2021/03/28 09:48:26;;;;;;;13.30;11.90;;;;;;;;;;5053664;28;20446;-92
2021/03/28 09:50:59;;;;;;;15.80;12.47;;;;;;;;;;5021295;28;20481;-93
2021/03/28 09:53:37;;;;;;;16.93;13.00;;;;;;;;;;5044274;28;20493;-94
2021/03/28 09:56:15;;;;;;;17.43;12.53;;;;;;;;;;5045542;28;20454;-95
2021/03/28 09:58:59;;;;;;;15.93;12.23;;;;;;;;;;5042814;28;20525;-93
2021/03/28 10:01:43;;;;;;;13.53;12.13;;;;;;;;;;5055593;28;20439;-96
2021/03/28 10:04:24;;;;;;;13.23;11.80;;;;;;;;;;5048291;28;20538;-95
2021/03/28 10:06:55;;;;;;;13.97;11.50;;;;;;;;;;5047028;28;20465;-93
2021/03/28 10:09:27;;;;;;;16.23;12.17;;;;;;;;;;5049970;28;21425;-96
2021/03/28 10:11:55;;;;;;;17.80;11.93;;;;;;;;;;5046795;28;20467;-95
2021/03/28 10:14:32;;;;;;;15.80;11.30;;;;;;;;;;5036638;28;20455;-93
2021/03/28 10:17:09;;;;;;;13.90;12.43;;;;;;;;;;5051951;28;20493;-94
2021/03/28 10:19:36;;;;;;;16.57;12.57;;;;;;;;;;5051602;28;20455;-95
2021/03/28 10:22:17;;;;;;;14.40;11.23;;;;;;;;;;5037812;28;20456;-93
2021/03/28 10:25:13;;;;;;;20.50;12.50;;;;;;;;;;5051868;28;20486;-96
2021/03/28 10:27:49;;;;;;;13.90;11.23;;;;;;;;;;4972988;28;20471;-95
2021/03/28 10:30:21;;;;;;;12.07;10.77;;;;;;;;;;5039018;28;21040;-95
2021/03/28 10:32:58;;;;;;;14.40;11.43;;;;;;;;;;5057071;28;20468;-93
2021/03/28 10:35:30;;;;;;;13.27;10.87;;;;;;;;;;5061898;28;20454;-94
2021/03/28 10:38:16;;;;;;;14.70;10.30;;;;;;;;;;5056954;28;20494;-95
2021/03/28 10:40:44;;;;;;;13.50;11.20;;;;;;;;;;5053186;28;20451;-95
2021/03/28 10:43:19;;;;;;;11.60;10.00;;;;;;;;;;5043883;28;20454;-93
2021/03/28 10:46:05;;;;;;;12.13;8.93;;;;;;;;;;5053848;28;20452;-94
2021/03/28 10:48:50;;;;;;;11.57;10.40;;;;;;;;;;5051786;28;20462;-93
2021/03/28 10:51:40;;;;;;;11.20;10.00;;;;;;;;;;5059399;28;20458;-94
2021/03/28 10:54:23;;;;;;;11.20;10.17;;;;;;;;;;5040009;28;20468;-95
2021/03/28 10:57:07;;;;;;;12.37;11.03;;;;;;;;;;5051751;28;20510;-91
2021/03/28 11:00:01;;;;;;;23.80;10.70;;;;;;;;;;5044680;28;20451;-94
2021/03/28 11:02:51;;;;;;;15.17;11.00;;;;;;;;;;5051642;28;20469;-94
2021/03/28 11:05:27;;;;;;;15.60;11.37;;;;;;;;;;5060758;28;20441;-94
2021/03/28 11:08:07;;;;;;;13.50;10.37;;;;;;;;;;5058758;28;20455;-94
2021/03/28 11:10:54;;;;;;;11.43;10.23;;;;;;;;;;5058171;28;20456;-91
2021/03/28 11:13:49;;;;;;;12.43;11.10;;;;;;;;;;5048360;28;20457;-94
2021/03/28 11:16:22;;;;;;;12.77;11.37;;;;;;;;;;5046081;28;20449;-93
2021/03/28 11:19:12;;;;;;;17.50;11.83;;;;;;;;;;5046533;28;20504;-96
2021/03/28 11:21:47;;;;;;;15.60;11.23;;;;;;;;;;5003853;28;20447;-96
2021/03/28 11:24:20;;;;;;;15.53;11.77;;;;;;;;;;5045756;28;20491;-94
2021/03/28 11:27:03;;;;;;;12.53;11.10;;;;;;;;;;5053154;28;20458;-95
2021/03/28 11:29:42;;;;;;;14.70;10.30;;;;;;;;;;5019701;28;20463;-95
2021/03/28 11:32:17;;;;;;;18.70;11.10;;;;;;;;;;5050753;28;20511;-95
2021/03/28 11:34:59;;;;;;;13.10;11.80;;;;;;;;;;5045796;28;20982;-91
2021/03/28 11:37:34;;;;;;;14.13;10.77;;;;;;;;;;5059384;28;20495;-94
2021/03/28 11:40:18;;;;;;;12.77;11.00;;;;;;;;;;5043868;28;20471;-95
2021/03/28 11:42:45;;;;;;;12.77;10.90;;;;;;;;;;5051419;28;20449;-93
2021/03/28 11:45:31;;;;;;;13.27;11.90;;;;;;;;;;5051771;28;20481;-94
2021/03/28 11:47:59;;;;;;;13.73;12.20;;;;;;;;;;5053125;28;20485;-94
2021/03/28 11:51:00;;;;;;;14.33;12.50;;;;;;;;;;5057291;28;20490;-95
2021/03/28 11:53:33;;;;;;;13.00;11.70;;;;;;;;;;5056976;28;20594;-95
2021/03/28 11:56:00;;;;;;;15.60;12.70;;;;;;;;;;5056965;28;20461;-94
2021/03/28 11:58:45;;;;;;;13.63;12.13;;;;;;;;;;5048849;28;20493;-94
2021/03/28 12:01:11;;;;;;;14.43;12.67;;;;;;;;;;5045674;28;20451;-92
2021/03/28 12:03:39;;;;;;;13.60;12.20;;;;;;;;;;5057637;28;20450;-95
2021/03/28 12:06:08;;;;;;;13.30;12.00;;;;;;;;;;5047671;28;20453;-94
2021/03/28 12:08:35;;;;;;;13.00;11.77;;;;;;;;;;5050076;28;20440;-93
2021/03/28 12:11:20;;;;;;;15.03;12.17;;;;;;;;;;5046574;28;20492;-95
2021/03/28 12:13:48;;;;;;;13.23;10.57;;;;;;;;;;5051968;28;20480;-93
2021/03/28 12:16:14;;;;;;;14.57;12.63;;;;;;;;;;5054188;28;20441;-95
2021/03/28 12:18:46;;;;;;;13.93;12.63;;;;;;;;;;5051268;28;20524;-95
2021/03/28 12:21:33;;;;;;;13.87;12.50;;;;;;;;;;5044899;28;20451;-94
2021/03/28 12:24:00;;;;;;;17.37;13.60;;;;;;;;;;5051010;28;20457;-95
2021/03/28 12:26:28;;;;;;;14.73;13.23;;;;;;;;;;5053494;28;20454;-93
2021/03/28 12:28:59;;;;;;;15.20;12.73;;;;;;;;;;5056436;28;20467;-94
2021/03/28 12:31:30;;;;;;;14.50;13.00;;;;;;;;;;5056393;28;20540;-94
2021/03/28 12:34:03;;;;;;;19.40;11.60;;;;;;;;;;5055944;28;20519;-94
2021/03/28 12:36:44;;;;;;;19.97;12.00;;;;;;;;;;5054298;28;20483;-93
2021/03/28 12:39:12;;;;;;;12.77;11.47;;;;;;;;;;5066026;28;20485;-94
2021/03/28 12:41:40;;;;;;;21.87;11.23;;;;;;;;;;5062974;28;20456;-94
2021/03/28 12:44:21;;;;;;;15.50;12.33;;;;;;;;;;5060454;28;21130;-94
2021/03/28 12:46:55;;;;;;;13.97;10.37;;;;;;;;;;5041393;28;20450;-93
2021/03/28 12:49:26;;;;;;;13.93;11.23;;;;;;;;;;5056577;28;20454;-94
2021/03/28 12:52:01;;;;;;;11.60;10.50;;;;;;;;;;5052934;28;20462;-93
2021/03/28 12:54:29;;;;;;;12.20;11.00;;;;;;;;;;5055781;28;20533;-92
2021/03/28 12:56:58;;;;;;;12.23;11.03;;;;;;;;;;5053279;28;20480;-95
2021/03/28 12:59:34;;;;;;;11.20;10.10;;;;;;;;;;5058301;28;20475;-93
2021/03/28 13:02:14;;;;;;;12.83;11.57;;;;;;;;;;5052389;28;20455;-92
2021/03/28 13:04:48;;;;;;;13.83;11.00;;;;;;;;;;5056036;28;20461;-94
2021/03/28 13:07:31;;;;;;;14.33;10.90;;;;;;;;;;5063807;28;20480;-93
2021/03/28 13:09:58;;;;;;;12.00;10.80;;;;;;;;;;5063551;28;20449;-92
2021/03/28 13:12:25;;;;;;;12.30;11.13;;;;;;;;;;5061345;28;20464;-93
2021/03/28 13:14:52;;;;;;;12.47;10.60;;;;;;;;;;5047357;28;20444;-92
2021/03/28 13:17:33;;;;;;;11.73;10.50;;;;;;;;;;5052764;28;20482;-93
2021/03/28 13:20:13;;;;;;;15.60;12.33;;;;;;;;;;5056333;28;20456;-93
2021/03/28 13:22:40;;;;;;;11.13;10.03;;;;;;;;;;5051575;28;20458;-91
2021/03/28 13:25:18;;;;;;;13.00;11.70;;;;;;;;;;5054349;28;20455;-96
2021/03/28 13:27:46;;;;;;;13.27;11.63;;;;;;;;;;5058041;28;20458;-92
2021/03/28 13:30:21;;;;;;;12.33;11.03;;;;;;;;;;5061863;28;20481;-95
2021/03/28 13:32:48;;;;;;;10.77;9.13;;;;;;;;;;5054530;28;20537;-95
2021/03/28 13:35:26;;;;;;;12.97;11.57;;;;;;;;;;5049592;28;20465;-93
2021/03/28 13:37:54;;;;;;;13.20;11.83;;;;;;;;;;5050647;28;20502;-93
2021/03/28 13:40:27;;;;;;;14.03;12.57;;;;;;;;;;5042685;28;20540;-92
2021/03/28 13:42:55;;;;;;;15.80;12.87;;;;;;;;;;5052302;28;20459;-93
2021/03/28 13:45:24;;;;;;;14.60;13.10;;;;;;;;;;5049532;28;20451;-91
2021/03/28 13:47:51;;;;;;;14.90;11.53;;;;;;;;;;5053198;28;20476;-96
2021/03/28 13:50:41;;;;;;;13.43;11.83;;;;;;;;;;5052156;28;20533;-94
2021/03/28 13:53:20;;;;;;;14.17;12.70;;;;;;;;;;5045480;28;20447;-95
2021/03/28 13:55:48;;;;;;;14.50;12.80;;;;;;;;;;5049507;28;20463;-93
2021/03/28 13:58:22;;;;;;;19.27;14.13;;;;;;;;;;5054324;28;20505;-94
2021/03/28 14:00:52;;;;;;;16.90;13.40;;;;;;;;;;5059932;28;20454;-92
2021/03/28 14:03:26;;;;;;;15.10;13.50;;;;;;;;;;5056258;28;20536;-95
2021/03/28 14:05:53;;;;;;;16.60;13.67;;;;;;;;;;5054481;28;20493;-93
2021/03/28 14:08:22;;;;;;;17.57;15.63;;;;;;;;;;5045698;28;20513;-92
2021/03/28 14:10:50;;;;;;;16.90;14.43;;;;;;;;;;5051561;28;20488;-93
2021/03/28 14:13:18;;;;;;;17.77;14.27;;;;;;;;;;5056929;28;21005;-94
2021/03/28 14:15:45;;;;;;;16.80;15.00;;;;;;;;;;5048787;28;20450;-94
2021/03/28 14:18:17;;;;;;;16.30;14.60;;;;;;;;;;5046949;28;20499;-95
2021/03/28 14:20:44;;;;;;;19.00;15.73;;;;;;;;;;5060709;28;20521;-95
2021/03/28 14:23:16;;;;;;;14.97;13.47;;;;;;;;;;5046656;28;20455;-95
2021/03/28 14:25:46;;;;;;;16.20;13.77;;;;;;;;;;5054101;28;20460;-94
2021/03/28 14:28:37;;;;;;;18.70;16.07;;;;;;;;;;5059291;28;20493;-94
2021/03/28 14:31:04;;;;;;;19.63;15.10;;;;;;;;;;5041548;28;20463;-94
2021/03/28 14:33:37;;;;;;;17.87;15.07;;;;;;;;;;5051570;28;20452;-94
2021/03/28 14:36:09;;;;;;;17.17;13.77;;;;;;;;;;5052617;28;20459;-92
2021/03/28 14:39:05;;;;;;;17.73;14.83;;;;;;;;;;5052745;28;20483;-94
2021/03/28 14:41:42;;;;;;;20.63;15.53;;;;;;;;;;5049005;28;20453;-94
2021/03/28 14:44:28;;;;;;;17.10;13.90;;;;;;;;;;5056942;28;20458;-95
2021/03/28 14:47:02;;;;;;;17.37;15.27;;;;;;;;;;5050907;28;20450;-96
2021/03/28 14:49:35;;;;;;;17.50;15.60;;;;;;;;;;5057744;28;20442;-94
2021/03/28 14:52:07;;;;;;;19.00;16.70;;;;;;;;;;5056942;28;20450;-93
2021/03/28 14:54:37;;;;;;;21.77;14.90;;;;;;;;;;5054681;28;20445;-94
2021/03/28 14:57:08;;;;;;;19.27;16.27;;;;;;;;;;5053352;28;20451;-94
2021/03/28 14:59:43;;;;;;;22.60;17.53;;;;;;;;;;5044642;28;20531;-96
2021/03/28 15:02:17;;;;;;;16.63;14.60;;;;;;;;;;5042527;28;20514;-93
2021/03/28 15:04:58;;;;;;;22.33;16.23;;;;;;;;;;5061596;28;20435;-92
2021/03/28 15:07:42;;;;;;;19.67;16.10;;;;;;;;;;5044607;28;20494;-95
2021/03/28 15:10:13;;;;;;;20.30;15.60;;;;;;;;;;5056123;28;20447;-93
2021/03/28 15:12:40;;;;;;;20.67;15.93;;;;;;;;;;5050925;28;20478;-93
2021/03/28 15:15:24;;;;;;;20.73;16.43;;;;;;;;;;5050727;28;20462;-94
2021/03/28 15:17:56;;;;;;;23.10;17.53;;;;;;;;;;5042714;28;20475;-93
2021/03/28 15:20:30;;;;;;;21.50;18.17;;;;;;;;;;5057651;28;20453;-94
2021/03/28 15:22:58;;;;;;;24.10;17.30;;;;;;;;;;5049488;28;20462;-94
2021/03/28 15:25:27;;;;;;;25.00;17.30;;;;;;;;;;5062192;28;20460;-94
2021/03/28 15:27:58;;;;;;;24.80;19.10;;;;;;;;;;5051224;28;20583;-94
2021/03/28 15:30:29;;;;;;;21.47;16.20;;;;;;;;;;5059037;28;20471;-96
2021/03/28 15:33:02;;;;;;;27.87;18.60;;;;;;;;;;5046536;28;20844;-95
2021/03/28 15:35:32;;;;;;;24.67;17.17;;;;;;;;;;5062881;28;20452;-93
2021/03/28 15:38:16;;;;;;;20.97;15.80;;;;;;;;;;5056223;28;20504;-93
2021/03/28 15:40:47;;;;;;;25.80;19.70;;;;;;;;;;5064883;28;20449;-94
2021/03/28 15:43:25;;;;;;;28.63;20.23;;;;;;;;;;5050917;28;20490;-94
2021/03/28 15:45:59;;;;;;;33.90;17.40;;;;;;;;;;5047798;28;20454;-93
2021/03/28 15:48:37;;;;;;;25.10;19.17;;;;;;;;;;5052969;28;20466;-92
2021/03/28 15:51:13;;;;;;;27.67;21.30;;;;;;;;;;5054847;28;21327;-95
2021/03/28 15:53:48;;;;;;;30.50;21.03;;;;;;;;;;5062933;28;20465;-93
2021/03/28 15:56:17;;;;;;;28.10;19.93;;;;;;;;;;5053270;28;20446;-96
2021/03/28 15:59:01;;;;;;;25.83;20.03;;;;;;;;;;5053823;28;20493;-93
2021/03/28 16:01:48;;;;;;;28.30;19.57;;;;;;;;;;5053679;28;20434;-92
2021/03/28 16:04:45;;;;;;;27.07;19.20;;;;;;;;;;5048461;28;20446;-95
2021/03/28 16:07:23;;;;;;;23.20;17.43;;;;;;;;;;5063036;28;20810;-92
2021/03/28 16:09:51;;;;;;;24.43;16.93;;;;;;;;;;5048972;28;20473;-94
2021/03/28 16:12:31;;;;;;;23.10;17.53;;;;;;;;;;5056988;28;20458;-93
2021/03/28 16:15:07;;;;;;;22.97;17.60;;;;;;;;;;5061326;28;20472;-95
2021/03/28 16:17:48;;;;;;;22.23;16.60;;;;;;;;;;5054974;28;20493;-92
2021/03/28 16:20:47;;;;;;;26.83;19.90;;;;;;;;;;5048308;28;20478;-96
2021/03/28 16:23:19;;;;;;;24.80;18.90;;;;;;;;;;5007544;28;20465;-92
2021/03/28 16:25:59;;;;;;;25.27;18.47;;;;;;;;;;5011571;28;20535;-96
2021/03/28 16:28:33;;;;;;;25.20;18.63;;;;;;;;;;5038419;28;20454;-93
2021/03/28 16:31:02;;;;;;;24.63;18.83;;;;;;;;;;5051672;28;20458;-94
2021/03/28 16:33:46;;;;;;;20.60;16.87;;;;;;;;;;5055946;28;20450;-96
2021/03/28 16:36:17;;;;;;;24.27;16.10;;;;;;;;;;5049170;28;20468;-95
2021/03/28 16:39:04;;;;;;;22.97;17.17;;;;;;;;;;5050442;28;20498;-94
2021/03/28 16:41:34;;;;;;;22.67;18.30;;;;;;;;;;5047922;28;20447;-95
2021/03/28 16:44:04;;;;;;;22.77;17.27;;;;;;;;;;5054425;28;20463;-93
2021/03/28 16:46:33;;;;;;;27.80;19.70;;;;;;;;;;5047336;28;20458;-93
2021/03/28 16:49:02;;;;;;;22.70;18.70;;;;;;;;;;5050554;28;20449;-93
2021/03/28 16:51:31;;;;;;;23.83;19.30;;;;;;;;;;5046934;28;20470;-92
2021/03/28 16:53:59;;;;;;;26.43;19.70;;;;;;;;;;5060636;28;20463;-93
2021/03/28 16:56:36;;;;;;;24.97;18.63;;;;;;;;;;5051008;28;20462;-93
2021/03/28 16:59:26;;;;;;;26.23;19.10;;;;;;;;;;5062215;28;20497;-94
2021/03/28 17:01:52;;;;;;;27.00;19.63;;;;;;;;;;5055766;28;20472;-93
2021/03/28 17:04:25;;;;;;;22.87;18.80;;;;;;;;;;5075969;28;20442;-94
2021/03/28 17:07:02;;;;;;;25.30;19.90;;;;;;;;;;5050174;28;20447;-93
2021/03/28 17:09:30;;;;;;;26.67;19.70;;;;;;;;;;5061632;28;20449;-95
2021/03/28 17:12:02;;;;;;;43.77;22.73;;;;;;;;;;5045564;28;20455;-94
2021/03/28 17:14:34;;;;;;;28.90;20.90;;;;;;;;;;5065011;28;20515;-95
2021/03/28 17:17:11;;;;;;;24.87;19.20;;;;;;;;;;5049426;28;20586;-93
2021/03/28 17:19:42;;;;;;;23.60;18.70;;;;;;;;;;5047289;28;20446;-93
2021/03/28 17:22:27;;;;;;;22.00;17.67;;;;;;;;;;5058950;28;20452;-94
2021/03/28 17:25:13;;;;;;;22.57;18.27;;;;;;;;;;5044940;28;20507;-93
2021/03/28 17:28:05;;;;;;;22.10;18.00;;;;;;;;;;5060824;28;20453;-96
2021/03/28 17:30:46;;;;;;;19.73;16.67;;;;;;;;;;5046257;28;20461;-91
2021/03/28 17:33:30;;;;;;;21.77;15.87;;;;;;;;;;5057494;28;20464;-91
2021/03/28 17:36:11;;;;;;;20.07;16.60;;;;;;;;;;5045770;28;20474;-92
2021/03/28 17:38:51;;;;;;;24.13;17.40;;;;;;;;;;5048063;28;20485;-89
2021/03/28 17:41:39;;;;;;;22.70;17.13;;;;;;;;;;5051789;28;20513;-91
2021/03/28 17:44:05;;;;;;;22.03;17.50;;;;;;;;;;5040258;28;20467;-91
2021/03/28 17:47:00;;;;;;;19.73;16.80;;;;;;;;;;5052364;28;20454;-92
2021/03/28 17:49:53;;;;;;;21.63;17.03;;;;;;;;;;5053870;28;20500;-92
2021/03/28 17:52:35;;;;;;;16.83;13.70;;;;;;;;;;5018761;28;21312;-92
2021/03/28 17:55:17;;;;;;;18.00;14.13;;;;;;;;;;5046528;28;20483;-92
2021/03/28 17:57:44;;;;;;;17.40;14.53;;;;;;;;;;5048298;28;20502;-94
2021/03/28 18:00:26;;;;;;;17.40;14.30;;;;;;;;;;5052254;28;21011;-95
2021/03/28 18:02:58;;;;;;;20.57;15.13;;;;;;;;;;5053208;28;20900;-96
2021/03/28 18:05:26;;;;;;;19.83;15.07;;;;;;;;;;5057891;28;20976;-93
2021/03/28 18:07:57;;;;;;;17.37;13.40;;;;;;;;;;5057394;28;20461;-95
2021/03/28 18:10:28;;;;;;;17.00;12.40;;;;;;;;;;5048876;28;20471;-93
2021/03/28 18:13:01;;;;;;;16.07;13.10;;;;;;;;;;5055134;28;20445;-92
2021/03/28 18:15:27;;;;;;;18.63;14.77;;;;;;;;;;5067380;28;20511;-91
2021/03/28 18:17:53;;;;;;;18.67;13.47;;;;;;;;;;5061282;28;20512;-94
2021/03/28 18:20:24;;;;;;;19.00;13.03;;;;;;;;;;5051736;28;20497;-94
2021/03/28 18:22:50;;;;;;;16.27;12.60;;;;;;;;;;5049229;28;20451;-94
2021/03/28 18:25:31;;;;;;;14.03;11.33;;;;;;;;;;5060560;28;20455;-94
2021/03/28 18:28:00;;;;;;;17.37;10.80;;;;;;;;;;5046944;28;20468;-94
2021/03/28 18:30:34;;;;;;;15.50;11.97;;;;;;;;;;5050940;28;20469;-92